sensor_id;sensor_type;location;lat;lon;timestamp;P1;durP1;ratioP1;P2;durP2;ratioP2
24567;SDS011;12731;52.182;8.716;2024-02-14T00:00:07;6.45;;;3.53;;
24567;SDS011;12731;52.182;8.716;2024-02-14T00:02:40;6.57;;;3.70;;
24567;SDS011;12731;52.182;8.716;2024-02-14T00:05:07;5.78;;;3.38;;
24567;SDS011;12731;52.182;8.716;2024-02-14T00:07:34;7.07;;;3.88;;
24567;SDS011;12731;52.182;8.716;2024-02-14T00:10:00;7.97;;;3.90;;
24567;SDS011;12731;52.182;8.716;2024-02-14T00:12:27;7.05;;;3.70;;
24567;SDS011;12731;52.182;8.716;2024-02-14T00:14:53;7.13;;;3.47;;
24567;SDS011;12731;52.182;8.716;2024-02-14T00:17:20;5.97;;;3.53;;
24567;SDS011;12731;52.182;8.716;2024-02-14T00:19:47;5.00;;;3.75;;
24567;SDS011;12731;52.182;8.716;2024-02-14T00:22:15;5.35;;;3.35;;
24567;SDS011;12731;52.182;8.716;2024-02-14T00:24:42;4.78;;;3.58;;
24567;SDS011;12731;52.182;8.716;2024-02-14T00:27:09;7.00;;;3.70;;
24567;SDS011;12731;52.182;8.716;2024-02-14T00:29:36;5.95;;;3.25;;
24567;SDS011;12731;52.182;8.716;2024-02-14T00:32:02;8.63;;;3.53;;
24567;SDS011;12731;52.182;8.716;2024-02-14T00:34:29;4.78;;;3.30;;
24567;SDS011;12731;52.182;8.716;2024-02-14T00:36:55;5.20;;;3.55;;
24567;SDS011;12731;52.182;8.716;2024-02-14T00:39:22;4.70;;;3.10;;
24567;SDS011;12731;52.182;8.716;2024-02-14T00:41:48;5.93;;;3.65;;
24567;SDS011;12731;52.182;8.716;2024-02-14T00:44:15;4.63;;;3.35;;
24567;SDS011;12731;52.182;8.716;2024-02-14T00:46:43;5.15;;;3.17;;
24567;SDS011;12731;52.182;8.716;2024-02-14T00:49:10;7.20;;;3.47;;
24567;SDS011;12731;52.182;8.716;2024-02-14T00:51:37;5.05;;;3.30;;
24567;SDS011;12731;52.182;8.716;2024-02-14T00:54:04;5.45;;;3.45;;
24567;SDS011;12731;52.182;8.716;2024-02-14T00:56:31;5.68;;;3.00;;
24567;SDS011;12731;52.182;8.716;2024-02-14T00:58:57;8.90;;;3.20;;
24567;SDS011;12731;52.182;8.716;2024-02-14T01:01:24;5.25;;;2.80;;
24567;SDS011;12731;52.182;8.716;2024-02-14T01:03:51;6.22;;;3.28;;
24567;SDS011;12731;52.182;8.716;2024-02-14T01:06:18;6.57;;;3.08;;
24567;SDS011;12731;52.182;8.716;2024-02-14T01:08:46;5.00;;;3.20;;
24567;SDS011;12731;52.182;8.716;2024-02-14T01:11:13;7.80;;;3.08;;
24567;SDS011;12731;52.182;8.716;2024-02-14T01:13:39;8.70;;;3.10;;
24567;SDS011;12731;52.182;8.716;2024-02-14T01:16:07;6.65;;;2.80;;
24567;SDS011;12731;52.182;8.716;2024-02-14T01:18:33;5.07;;;3.08;;
24567;SDS011;12731;52.182;8.716;2024-02-14T01:21:00;7.72;;;3.30;;
24567;SDS011;12731;52.182;8.716;2024-02-14T01:23:27;7.13;;;3.13;;
24567;SDS011;12731;52.182;8.716;2024-02-14T01:25:54;6.65;;;2.97;;
24567;SDS011;12731;52.182;8.716;2024-02-14T01:28:21;4.22;;;2.97;;
24567;SDS011;12731;52.182;8.716;2024-02-14T01:30:48;6.75;;;3.13;;
24567;SDS011;12731;52.182;8.716;2024-02-14T01:33:14;5.70;;;3.13;;
24567;SDS011;12731;52.182;8.716;2024-02-14T01:35:43;4.78;;;3.53;;
24567;SDS011;12731;52.182;8.716;2024-02-14T01:38:09;5.03;;;2.90;;
24567;SDS011;12731;52.182;8.716;2024-02-14T01:40:36;5.57;;;3.00;;
24567;SDS011;12731;52.182;8.716;2024-02-14T01:43:02;5.85;;;2.88;;
24567;SDS011;12731;52.182;8.716;2024-02-14T01:45:28;4.22;;;2.80;;
24567;SDS011;12731;52.182;8.716;2024-02-14T01:47:55;5.70;;;2.97;;
24567;SDS011;12731;52.182;8.716;2024-02-14T01:50:22;6.55;;;3.15;;
24567;SDS011;12731;52.182;8.716;2024-02-14T01:52:56;5.90;;;2.90;;
24567;SDS011;12731;52.182;8.716;2024-02-14T01:55:26;7.07;;;3.00;;
24567;SDS011;12731;52.182;8.716;2024-02-14T01:57:54;5.63;;;2.63;;
24567;SDS011;12731;52.182;8.716;2024-02-14T02:00:20;9.60;;;3.80;;
24567;SDS011;12731;52.182;8.716;2024-02-14T02:02:47;6.30;;;3.22;;
24567;SDS011;12731;52.182;8.716;2024-02-14T02:05:14;6.80;;;3.28;;
24567;SDS011;12731;52.182;8.716;2024-02-14T02:07:42;6.07;;;3.10;;
24567;SDS011;12731;52.182;8.716;2024-02-14T02:10:10;6.40;;;3.33;;
24567;SDS011;12731;52.182;8.716;2024-02-14T02:12:37;5.90;;;3.30;;
24567;SDS011;12731;52.182;8.716;2024-02-14T02:15:07;6.22;;;2.85;;
24567;SDS011;12731;52.182;8.716;2024-02-14T02:17:37;6.05;;;3.15;;
24567;SDS011;12731;52.182;8.716;2024-02-14T02:20:03;5.93;;;3.10;;
24567;SDS011;12731;52.182;8.716;2024-02-14T02:22:33;7.90;;;3.70;;
24567;SDS011;12731;52.182;8.716;2024-02-14T02:25:02;6.53;;;3.28;;
24567;SDS011;12731;52.182;8.716;2024-02-14T02:27:29;6.85;;;3.63;;
24567;SDS011;12731;52.182;8.716;2024-02-14T02:29:56;6.35;;;3.55;;
24567;SDS011;12731;52.182;8.716;2024-02-14T02:32:22;6.35;;;3.72;;
24567;SDS011;12731;52.182;8.716;2024-02-14T02:34:49;6.43;;;3.75;;
24567;SDS011;12731;52.182;8.716;2024-02-14T02:37:15;6.95;;;3.58;;
24567;SDS011;12731;52.182;8.716;2024-02-14T02:39:42;5.88;;;3.67;;
24567;SDS011;12731;52.182;8.716;2024-02-14T02:42:09;7.13;;;3.30;;
24567;SDS011;12731;52.182;8.716;2024-02-14T02:44:38;7.45;;;3.10;;
24567;SDS011;12731;52.182;8.716;2024-02-14T02:47:05;4.72;;;3.60;;
24567;SDS011;12731;52.182;8.716;2024-02-14T02:49:31;6.63;;;3.35;;
24567;SDS011;12731;52.182;8.716;2024-02-14T02:51:59;7.60;;;3.50;;
24567;SDS011;12731;52.182;8.716;2024-02-14T02:54:25;5.05;;;3.42;;
24567;SDS011;12731;52.182;8.716;2024-02-14T02:56:51;5.18;;;2.97;;
24567;SDS011;12731;52.182;8.716;2024-02-14T02:59:18;7.45;;;3.47;;
24567;SDS011;12731;52.182;8.716;2024-02-14T03:01:45;6.22;;;2.90;;
24567;SDS011;12731;52.182;8.716;2024-02-14T03:04:12;5.45;;;3.17;;
24567;SDS011;12731;52.182;8.716;2024-02-14T03:06:41;8.18;;;3.13;;
24567;SDS011;12731;52.182;8.716;2024-02-14T03:09:09;7.05;;;3.40;;
24567;SDS011;12731;52.182;8.716;2024-02-14T03:11:36;4.40;;;2.88;;
24567;SDS011;12731;52.182;8.716;2024-02-14T03:14:04;5.28;;;3.10;;
24567;SDS011;12731;52.182;8.716;2024-02-14T03:16:31;4.55;;;2.90;;
24567;SDS011;12731;52.182;8.716;2024-02-14T03:18:58;6.05;;;3.20;;
24567;SDS011;12731;52.182;8.716;2024-02-14T03:21:25;4.68;;;3.00;;
24567;SDS011;12731;52.182;8.716;2024-02-14T03:23:51;5.05;;;2.78;;
24567;SDS011;12731;52.182;8.716;2024-02-14T03:26:20;7.95;;;2.92;;
24567;SDS011;12731;52.182;8.716;2024-02-14T03:28:46;5.90;;;2.85;;
24567;SDS011;12731;52.182;8.716;2024-02-14T03:31:14;7.30;;;3.47;;
24567;SDS011;12731;52.182;8.716;2024-02-14T03:33:42;3.63;;;2.83;;
24567;SDS011;12731;52.182;8.716;2024-02-14T03:36:09;7.57;;;3.17;;
24567;SDS011;12731;52.182;8.716;2024-02-14T03:38:36;5.60;;;3.33;;
24567;SDS011;12731;52.182;8.716;2024-02-14T03:41:03;4.95;;;3.35;;
24567;SDS011;12731;52.182;8.716;2024-02-14T03:43:29;5.07;;;3.50;;
24567;SDS011;12731;52.182;8.716;2024-02-14T03:45:56;6.22;;;3.17;;
24567;SDS011;12731;52.182;8.716;2024-02-14T03:48:22;4.63;;;3.50;;
24567;SDS011;12731;52.182;8.716;2024-02-14T03:50:49;5.93;;;3.47;;
24567;SDS011;12731;52.182;8.716;2024-02-14T03:53:16;6.82;;;3.08;;
24567;SDS011;12731;52.182;8.716;2024-02-14T03:55:43;6.60;;;3.45;;
24567;SDS011;12731;52.182;8.716;2024-02-14T03:58:09;5.88;;;3.70;;
24567;SDS011;12731;52.182;8.716;2024-02-14T04:00:36;4.82;;;3.25;;
24567;SDS011;12731;52.182;8.716;2024-02-14T04:03:02;7.80;;;4.00;;
24567;SDS011;12731;52.182;8.716;2024-02-14T04:05:29;6.20;;;4.03;;
24567;SDS011;12731;52.182;8.716;2024-02-14T04:07:55;6.05;;;3.38;;
24567;SDS011;12731;52.182;8.716;2024-02-14T04:10:22;5.28;;;3.45;;
24567;SDS011;12731;52.182;8.716;2024-02-14T04:12:48;6.20;;;3.63;;
24567;SDS011;12731;52.182;8.716;2024-02-14T04:15:15;4.47;;;3.25;;
24567;SDS011;12731;52.182;8.716;2024-02-14T04:17:41;6.53;;;3.60;;
24567;SDS011;12731;52.182;8.716;2024-02-14T04:20:08;8.25;;;3.90;;
24567;SDS011;12731;52.182;8.716;2024-02-14T04:22:35;6.03;;;3.50;;
24567;SDS011;12731;52.182;8.716;2024-02-14T04:25:02;7.47;;;4.10;;
24567;SDS011;12731;52.182;8.716;2024-02-14T04:27:28;7.13;;;3.90;;
24567;SDS011;12731;52.182;8.716;2024-02-14T04:29:54;5.97;;;3.92;;
24567;SDS011;12731;52.182;8.716;2024-02-14T04:32:21;5.35;;;3.67;;
24567;SDS011;12731;52.182;8.716;2024-02-14T04:34:48;5.85;;;4.00;;
24567;SDS011;12731;52.182;8.716;2024-02-14T04:37:15;4.85;;;3.55;;
24567;SDS011;12731;52.182;8.716;2024-02-14T04:39:44;5.90;;;3.92;;
24567;SDS011;12731;52.182;8.716;2024-02-14T04:42:11;7.00;;;4.10;;
24567;SDS011;12731;52.182;8.716;2024-02-14T04:44:38;8.63;;;4.32;;
24567;SDS011;12731;52.182;8.716;2024-02-14T04:47:05;6.40;;;4.35;;
24567;SDS011;12731;52.182;8.716;2024-02-14T04:49:31;7.50;;;4.13;;
24567;SDS011;12731;52.182;8.716;2024-02-14T04:51:59;6.75;;;3.95;;
24567;SDS011;12731;52.182;8.716;2024-02-14T04:54:25;7.72;;;4.47;;
24567;SDS011;12731;52.182;8.716;2024-02-14T04:56:52;6.30;;;4.10;;
24567;SDS011;12731;52.182;8.716;2024-02-14T04:59:24;8.05;;;4.47;;
24567;SDS011;12731;52.182;8.716;2024-02-14T05:01:50;7.10;;;4.78;;
24567;SDS011;12731;52.182;8.716;2024-02-14T05:04:19;10.23;;;5.60;;
24567;SDS011;12731;52.182;8.716;2024-02-14T05:06:47;7.28;;;5.10;;
24567;SDS011;12731;52.182;8.716;2024-02-14T05:09:15;5.93;;;4.60;;
24567;SDS011;12731;52.182;8.716;2024-02-14T05:11:42;9.90;;;5.85;;
24567;SDS011;12731;52.182;8.716;2024-02-14T05:14:08;6.97;;;5.03;;
24567;SDS011;12731;52.182;8.716;2024-02-14T05:16:34;8.60;;;5.68;;
24567;SDS011;12731;52.182;8.716;2024-02-14T05:19:01;8.85;;;5.60;;
24567;SDS011;12731;52.182;8.716;2024-02-14T05:21:28;9.88;;;5.60;;
24567;SDS011;12731;52.182;8.716;2024-02-14T05:23:54;9.00;;;5.80;;
24567;SDS011;12731;52.182;8.716;2024-02-14T05:26:21;8.43;;;5.53;;
24567;SDS011;12731;52.182;8.716;2024-02-14T05:28:47;7.72;;;5.13;;
24567;SDS011;12731;52.182;8.716;2024-02-14T05:31:14;7.25;;;5.60;;
24567;SDS011;12731;52.182;8.716;2024-02-14T05:33:41;7.40;;;5.20;;
24567;SDS011;12731;52.182;8.716;2024-02-14T05:36:08;7.18;;;5.35;;
24567;SDS011;12731;52.182;8.716;2024-02-14T05:38:34;8.15;;;5.20;;
24567;SDS011;12731;52.182;8.716;2024-02-14T05:41:01;9.00;;;5.60;;
24567;SDS011;12731;52.182;8.716;2024-02-14T05:43:28;8.82;;;6.13;;
24567;SDS011;12731;52.182;8.716;2024-02-14T05:45:54;6.75;;;5.38;;
24567;SDS011;12731;52.182;8.716;2024-02-14T05:48:21;7.07;;;5.78;;
24567;SDS011;12731;52.182;8.716;2024-02-14T05:50:48;7.95;;;5.65;;
24567;SDS011;12731;52.182;8.716;2024-02-14T05:53:15;8.55;;;5.57;;
24567;SDS011;12731;52.182;8.716;2024-02-14T05:55:41;7.32;;;5.75;;
24567;SDS011;12731;52.182;8.716;2024-02-14T05:58:07;7.38;;;5.57;;
24567;SDS011;12731;52.182;8.716;2024-02-14T06:00:34;9.00;;;5.65;;
24567;SDS011;12731;52.182;8.716;2024-02-14T06:03:03;6.43;;;5.30;;
24567;SDS011;12731;52.182;8.716;2024-02-14T06:05:32;8.48;;;5.97;;
24567;SDS011;12731;52.182;8.716;2024-02-14T06:07:59;7.13;;;5.80;;
24567;SDS011;12731;52.182;8.716;2024-02-14T06:10:25;7.13;;;5.60;;
24567;SDS011;12731;52.182;8.716;2024-02-14T06:12:52;7.97;;;6.03;;
24567;SDS011;12731;52.182;8.716;2024-02-14T06:15:18;8.30;;;6.10;;
24567;SDS011;12731;52.182;8.716;2024-02-14T06:17:45;6.00;;;5.35;;
24567;SDS011;12731;52.182;8.716;2024-02-14T06:20:12;7.43;;;5.70;;
24567;SDS011;12731;52.182;8.716;2024-02-14T06:22:39;7.55;;;6.18;;
24567;SDS011;12731;52.182;8.716;2024-02-14T06:25:15;8.10;;;6.28;;
24567;SDS011;12731;52.182;8.716;2024-02-14T06:27:42;6.82;;;6.13;;
24567;SDS011;12731;52.182;8.716;2024-02-14T06:30:09;8.15;;;6.35;;
24567;SDS011;12731;52.182;8.716;2024-02-14T06:32:36;8.10;;;7.13;;
24567;SDS011;12731;52.182;8.716;2024-02-14T06:35:03;9.20;;;7.10;;
24567;SDS011;12731;52.182;8.716;2024-02-14T06:37:30;8.63;;;6.85;;
24567;SDS011;12731;52.182;8.716;2024-02-14T06:40:10;8.48;;;6.68;;
24567;SDS011;12731;52.182;8.716;2024-02-14T06:42:37;9.80;;;6.90;;
24567;SDS011;12731;52.182;8.716;2024-02-14T06:45:03;8.10;;;6.72;;
24567;SDS011;12731;52.182;8.716;2024-02-14T06:47:30;8.43;;;6.97;;
24567;SDS011;12731;52.182;8.716;2024-02-14T06:49:57;7.97;;;7.18;;
24567;SDS011;12731;52.182;8.716;2024-02-14T06:52:23;8.60;;;7.18;;
24567;SDS011;12731;52.182;8.716;2024-02-14T06:54:50;8.32;;;6.80;;
24567;SDS011;12731;52.182;8.716;2024-02-14T06:57:17;11.15;;;8.43;;
24567;SDS011;12731;52.182;8.716;2024-02-14T06:59:44;8.82;;;7.45;;
24567;SDS011;12731;52.182;8.716;2024-02-14T07:02:10;10.43;;;7.78;;
24567;SDS011;12731;52.182;8.716;2024-02-14T07:04:39;7.80;;;7.00;;
24567;SDS011;12731;52.182;8.716;2024-02-14T07:07:06;8.00;;;7.10;;
24567;SDS011;12731;52.182;8.716;2024-02-14T07:09:32;8.77;;;7.88;;
24567;SDS011;12731;52.182;8.716;2024-02-14T07:12:01;7.97;;;7.18;;
24567;SDS011;12731;52.182;8.716;2024-02-14T07:14:28;8.50;;;7.70;;
24567;SDS011;12731;52.182;8.716;2024-02-14T07:16:55;9.52;;;8.35;;
24567;SDS011;12731;52.182;8.716;2024-02-14T07:19:21;9.32;;;8.38;;
24567;SDS011;12731;52.182;8.716;2024-02-14T07:21:48;10.05;;;8.57;;
24567;SDS011;12731;52.182;8.716;2024-02-14T07:24:14;12.05;;;9.30;;
24567;SDS011;12731;52.182;8.716;2024-02-14T07:26:41;9.73;;;8.70;;
24567;SDS011;12731;52.182;8.716;2024-02-14T07:29:09;12.27;;;9.85;;
24567;SDS011;12731;52.182;8.716;2024-02-14T07:31:36;12.50;;;9.55;;
24567;SDS011;12731;52.182;8.716;2024-02-14T07:34:02;12.43;;;10.70;;
24567;SDS011;12731;52.182;8.716;2024-02-14T07:36:34;12.10;;;10.80;;
24567;SDS011;12731;52.182;8.716;2024-02-14T07:39:01;13.68;;;12.13;;
24567;SDS011;12731;52.182;8.716;2024-02-14T07:41:27;14.15;;;12.73;;
24567;SDS011;12731;52.182;8.716;2024-02-14T07:43:54;16.05;;;13.90;;
24567;SDS011;12731;52.182;8.716;2024-02-14T07:46:23;16.92;;;14.95;;
24567;SDS011;12731;52.182;8.716;2024-02-14T07:48:52;17.70;;;15.20;;
24567;SDS011;12731;52.182;8.716;2024-02-14T07:51:19;17.42;;;15.07;;
24567;SDS011;12731;52.182;8.716;2024-02-14T07:53:46;19.80;;;16.83;;
24567;SDS011;12731;52.182;8.716;2024-02-14T07:56:14;17.92;;;16.02;;
24567;SDS011;12731;52.182;8.716;2024-02-14T07:58:40;19.20;;;16.83;;
24567;SDS011;12731;52.182;8.716;2024-02-14T08:01:06;18.23;;;16.33;;
24567;SDS011;12731;52.182;8.716;2024-02-14T08:03:33;20.83;;;17.27;;
24567;SDS011;12731;52.182;8.716;2024-02-14T08:06:00;19.77;;;17.38;;
24567;SDS011;12731;52.182;8.716;2024-02-14T08:08:27;19.13;;;17.02;;
24567;SDS011;12731;52.182;8.716;2024-02-14T08:10:56;19.33;;;17.23;;
24567;SDS011;12731;52.182;8.716;2024-02-14T08:13:22;19.08;;;17.17;;
24567;SDS011;12731;52.182;8.716;2024-02-14T08:15:49;19.98;;;17.77;;
24567;SDS011;12731;52.182;8.716;2024-02-14T08:18:15;19.17;;;17.25;;
24567;SDS011;12731;52.182;8.716;2024-02-14T08:20:42;19.42;;;17.42;;
24567;SDS011;12731;52.182;8.716;2024-02-14T08:23:09;19.80;;;17.00;;
24567;SDS011;12731;52.182;8.716;2024-02-14T08:25:35;18.95;;;16.92;;
24567;SDS011;12731;52.182;8.716;2024-02-14T08:28:02;22.45;;;16.95;;
24567;SDS011;12731;52.182;8.716;2024-02-14T08:30:29;20.55;;;17.60;;
24567;SDS011;12731;52.182;8.716;2024-02-14T08:32:55;19.48;;;17.48;;
24567;SDS011;12731;52.182;8.716;2024-02-14T08:35:22;20.27;;;17.75;;
24567;SDS011;12731;52.182;8.716;2024-02-14T08:37:49;19.40;;;16.63;;
24567;SDS011;12731;52.182;8.716;2024-02-14T08:40:15;20.55;;;17.35;;
24567;SDS011;12731;52.182;8.716;2024-02-14T08:42:42;19.95;;;17.10;;
24567;SDS011;12731;52.182;8.716;2024-02-14T08:45:08;20.20;;;17.88;;
24567;SDS011;12731;52.182;8.716;2024-02-14T08:47:35;23.13;;;18.15;;
24567;SDS011;12731;52.182;8.716;2024-02-14T08:50:05;19.33;;;17.33;;
24567;SDS011;12731;52.182;8.716;2024-02-14T08:52:32;19.98;;;17.92;;
24567;SDS011;12731;52.182;8.716;2024-02-14T08:54:59;19.80;;;17.73;;
24567;SDS011;12731;52.182;8.716;2024-02-14T08:57:25;20.35;;;18.25;;
24567;SDS011;12731;52.182;8.716;2024-02-14T08:59:52;19.75;;;17.65;;
24567;SDS011;12731;52.182;8.716;2024-02-14T09:02:19;19.58;;;17.60;;
24567;SDS011;12731;52.182;8.716;2024-02-14T09:04:45;19.27;;;17.17;;
24567;SDS011;12731;52.182;8.716;2024-02-14T09:07:12;19.30;;;17.30;;
24567;SDS011;12731;52.182;8.716;2024-02-14T09:09:39;19.42;;;16.40;;
24567;SDS011;12731;52.182;8.716;2024-02-14T09:12:06;18.95;;;16.63;;
24567;SDS011;12731;52.182;8.716;2024-02-14T09:14:32;19.00;;;17.00;;
24567;SDS011;12731;52.182;8.716;2024-02-14T09:16:59;19.60;;;17.50;;
24567;SDS011;12731;52.182;8.716;2024-02-14T09:19:25;18.65;;;16.65;;
24567;SDS011;12731;52.182;8.716;2024-02-14T09:21:53;17.20;;;15.38;;
24567;SDS011;12731;52.182;8.716;2024-02-14T09:24:20;16.60;;;14.88;;
24567;SDS011;12731;52.182;8.716;2024-02-14T09:26:46;16.77;;;15.05;;
24567;SDS011;12731;52.182;8.716;2024-02-14T09:29:13;16.17;;;14.57;;
24567;SDS011;12731;52.182;8.716;2024-02-14T09:31:41;16.40;;;14.68;;
24567;SDS011;12731;52.182;8.716;2024-02-14T09:34:08;15.93;;;14.32;;
24567;SDS011;12731;52.182;8.716;2024-02-14T09:36:37;14.82;;;13.27;;
24567;SDS011;12731;52.182;8.716;2024-02-14T09:39:03;14.30;;;12.57;;
24567;SDS011;12731;52.182;8.716;2024-02-14T09:41:37;15.60;;;12.77;;
24567;SDS011;12731;52.182;8.716;2024-02-14T09:44:06;13.38;;;11.98;;
24567;SDS011;12731;52.182;8.716;2024-02-14T09:46:35;14.30;;;12.35;;
24567;SDS011;12731;52.182;8.716;2024-02-14T09:49:02;14.32;;;12.85;;
24567;SDS011;12731;52.182;8.716;2024-02-14T09:51:30;13.80;;;12.40;;
24567;SDS011;12731;52.182;8.716;2024-02-14T09:53:56;13.77;;;12.38;;
24567;SDS011;12731;52.182;8.716;2024-02-14T09:56:28;14.10;;;12.57;;
24567;SDS011;12731;52.182;8.716;2024-02-14T09:58:54;14.13;;;12.73;;
24567;SDS011;12731;52.182;8.716;2024-02-14T10:01:26;13.53;;;12.23;;
24567;SDS011;12731;52.182;8.716;2024-02-14T10:03:53;15.27;;;13.65;;
24567;SDS011;12731;52.182;8.716;2024-02-14T10:06:20;14.27;;;12.77;;
24567;SDS011;12731;52.182;8.716;2024-02-14T10:08:48;13.60;;;12.20;;
24567;SDS011;12731;52.182;8.716;2024-02-14T10:11:30;14.55;;;13.15;;
24567;SDS011;12731;52.182;8.716;2024-02-14T10:14:00;13.43;;;12.02;;
24567;SDS011;12731;52.182;8.716;2024-02-14T10:16:30;14.23;;;12.75;;
24567;SDS011;12731;52.182;8.716;2024-02-14T10:18:56;15.20;;;12.52;;
24567;SDS011;12731;52.182;8.716;2024-02-14T10:21:23;13.57;;;12.23;;
24567;SDS011;12731;52.182;8.716;2024-02-14T10:23:52;13.85;;;12.45;;
24567;SDS011;12731;52.182;8.716;2024-02-14T10:26:19;13.18;;;11.98;;
24567;SDS011;12731;52.182;8.716;2024-02-14T10:28:46;13.70;;;12.40;;
24567;SDS011;12731;52.182;8.716;2024-02-14T10:31:15;13.65;;;12.40;;
24567;SDS011;12731;52.182;8.716;2024-02-14T10:33:42;15.05;;;13.55;;
24567;SDS011;12731;52.182;8.716;2024-02-14T10:36:09;15.13;;;13.55;;
24567;SDS011;12731;52.182;8.716;2024-02-14T10:38:38;15.63;;;14.02;;
24567;SDS011;12731;52.182;8.716;2024-02-14T10:41:06;18.25;;;15.95;;
24567;SDS011;12731;52.182;8.716;2024-02-14T10:43:36;17.35;;;15.50;;
24567;SDS011;12731;52.182;8.716;2024-02-14T10:46:05;17.20;;;15.50;;
24567;SDS011;12731;52.182;8.716;2024-02-14T10:48:34;17.80;;;15.90;;
24567;SDS011;12731;52.182;8.716;2024-02-14T10:51:04;18.05;;;15.25;;
24567;SDS011;12731;52.182;8.716;2024-02-14T10:53:33;17.70;;;15.77;;
24567;SDS011;12731;52.182;8.716;2024-02-14T10:56:03;18.58;;;16.77;;
24567;SDS011;12731;52.182;8.716;2024-02-14T10:58:30;18.85;;;16.75;;
24567;SDS011;12731;52.182;8.716;2024-02-14T11:00:57;18.48;;;16.45;;
24567;SDS011;12731;52.182;8.716;2024-02-14T11:03:24;19.27;;;17.33;;
24567;SDS011;12731;52.182;8.716;2024-02-14T11:05:53;18.30;;;16.40;;
24567;SDS011;12731;52.182;8.716;2024-02-14T11:08:20;20.00;;;16.58;;
24567;SDS011;12731;52.182;8.716;2024-02-14T11:10:56;18.40;;;16.50;;
24567;SDS011;12731;52.182;8.716;2024-02-14T11:13:28;18.33;;;16.40;;
24567;SDS011;12731;52.182;8.716;2024-02-14T11:16:00;18.60;;;16.67;;
24567;SDS011;12731;52.182;8.716;2024-02-14T11:18:31;18.65;;;16.77;;
24567;SDS011;12731;52.182;8.716;2024-02-14T11:21:04;18.25;;;16.45;;
24567;SDS011;12731;52.182;8.716;2024-02-14T11:23:31;17.48;;;15.88;;
24567;SDS011;12731;52.182;8.716;2024-02-14T11:26:02;18.65;;;16.75;;
24567;SDS011;12731;52.182;8.716;2024-02-14T11:28:29;17.92;;;16.02;;
24567;SDS011;12731;52.182;8.716;2024-02-14T11:31:02;18.38;;;16.58;;
24567;SDS011;12731;52.182;8.716;2024-02-14T11:33:31;17.42;;;15.63;;
24567;SDS011;12731;52.182;8.716;2024-02-14T11:35:57;18.83;;;16.23;;
24567;SDS011;12731;52.182;8.716;2024-02-14T11:38:25;20.08;;;18.02;;
24567;SDS011;12731;52.182;8.716;2024-02-14T11:40:53;19.48;;;17.42;;
24567;SDS011;12731;52.182;8.716;2024-02-14T11:43:22;17.95;;;16.17;;
24567;SDS011;12731;52.182;8.716;2024-02-14T11:45:49;17.17;;;15.50;;
24567;SDS011;12731;52.182;8.716;2024-02-14T11:48:16;17.58;;;15.63;;
24567;SDS011;12731;52.182;8.716;2024-02-14T11:50:44;17.15;;;15.45;;
24567;SDS011;12731;52.182;8.716;2024-02-14T11:53:11;16.13;;;14.52;;
24567;SDS011;12731;52.182;8.716;2024-02-14T11:55:40;16.50;;;14.80;;
24567;SDS011;12731;52.182;8.716;2024-02-14T11:58:10;15.98;;;14.40;;
24567;SDS011;12731;52.182;8.716;2024-02-14T12:00:38;16.52;;;14.88;;
24567;SDS011;12731;52.182;8.716;2024-02-14T12:03:07;16.10;;;14.43;;
24567;SDS011;12731;52.182;8.716;2024-02-14T12:05:37;16.15;;;14.45;;
24567;SDS011;12731;52.182;8.716;2024-02-14T12:08:04;16.10;;;14.50;;
24567;SDS011;12731;52.182;8.716;2024-02-14T12:10:32;16.83;;;15.13;;
24567;SDS011;12731;52.182;8.716;2024-02-14T12:13:04;15.27;;;13.70;;
24567;SDS011;12731;52.182;8.716;2024-02-14T12:15:38;15.18;;;13.57;;
24567;SDS011;12731;52.182;8.716;2024-02-14T12:18:08;16.13;;;14.50;;
24567;SDS011;12731;52.182;8.716;2024-02-14T12:20:37;16.25;;;14.65;;
24567;SDS011;12731;52.182;8.716;2024-02-14T12:23:04;16.13;;;14.57;;
24567;SDS011;12731;52.182;8.716;2024-02-14T12:25:32;17.50;;;13.45;;
24567;SDS011;12731;52.182;8.716;2024-02-14T12:27:59;14.90;;;13.50;;
24567;SDS011;12731;52.182;8.716;2024-02-14T12:30:43;15.23;;;13.82;;
24567;SDS011;12731;52.182;8.716;2024-02-14T12:33:15;13.60;;;12.30;;
24567;SDS011;12731;52.182;8.716;2024-02-14T12:35:46;13.48;;;12.27;;
24567;SDS011;12731;52.182;8.716;2024-02-14T12:38:14;14.55;;;13.02;;
24567;SDS011;12731;52.182;8.716;2024-02-14T12:40:42;13.07;;;11.75;;
24567;SDS011;12731;52.182;8.716;2024-02-14T12:43:13;11.30;;;10.30;;
24567;SDS011;12731;52.182;8.716;2024-02-14T12:45:41;11.75;;;10.55;;
24567;SDS011;12731;52.182;8.716;2024-02-14T12:48:09;10.55;;;9.48;;
24567;SDS011;12731;52.182;8.716;2024-02-14T12:50:36;9.50;;;8.63;;
24567;SDS011;12731;52.182;8.716;2024-02-14T12:53:04;10.30;;;9.35;;
24567;SDS011;12731;52.182;8.716;2024-02-14T12:55:31;8.70;;;7.90;;
24567;SDS011;12731;52.182;8.716;2024-02-14T12:57:57;8.20;;;7.40;;
24567;SDS011;12731;52.182;8.716;2024-02-14T13:00:24;8.82;;;8.02;;
24567;SDS011;12731;52.182;8.716;2024-02-14T13:02:51;8.90;;;8.00;;
24567;SDS011;12731;52.182;8.716;2024-02-14T13:05:18;8.60;;;7.70;;
24567;SDS011;12731;52.182;8.716;2024-02-14T13:07:45;8.63;;;7.63;;
24567;SDS011;12731;52.182;8.716;2024-02-14T13:10:13;8.52;;;7.82;;
24567;SDS011;12731;52.182;8.716;2024-02-14T13:12:39;9.98;;;9.07;;
24567;SDS011;12731;52.182;8.716;2024-02-14T13:15:06;9.00;;;8.20;;
24567;SDS011;12731;52.182;8.716;2024-02-14T13:17:33;9.70;;;8.80;;
24567;SDS011;12731;52.182;8.716;2024-02-14T13:19:59;8.35;;;7.55;;
24567;SDS011;12731;52.182;8.716;2024-02-14T13:22:26;10.02;;;9.13;;
24567;SDS011;12731;52.182;8.716;2024-02-14T13:24:53;11.30;;;10.20;;
24567;SDS011;12731;52.182;8.716;2024-02-14T13:27:20;11.30;;;10.10;;
24567;SDS011;12731;52.182;8.716;2024-02-14T13:29:47;12.02;;;10.70;;
24567;SDS011;12731;52.182;8.716;2024-02-14T13:32:14;11.90;;;10.48;;
24567;SDS011;12731;52.182;8.716;2024-02-14T13:34:40;12.38;;;10.93;;
24567;SDS011;12731;52.182;8.716;2024-02-14T13:37:07;11.40;;;10.25;;
24567;SDS011;12731;52.182;8.716;2024-02-14T13:39:35;10.93;;;9.93;;
24567;SDS011;12731;52.182;8.716;2024-02-14T13:42:02;10.73;;;9.70;;
24567;SDS011;12731;52.182;8.716;2024-02-14T13:44:29;10.88;;;9.88;;
24567;SDS011;12731;52.182;8.716;2024-02-14T13:46:55;11.30;;;9.80;;
24567;SDS011;12731;52.182;8.716;2024-02-14T13:49:22;10.90;;;9.82;;
24567;SDS011;12731;52.182;8.716;2024-02-14T13:51:49;11.90;;;10.70;;
24567;SDS011;12731;52.182;8.716;2024-02-14T13:54:20;12.35;;;10.80;;
24567;SDS011;12731;52.182;8.716;2024-02-14T13:56:47;14.90;;;11.27;;
24567;SDS011;12731;52.182;8.716;2024-02-14T13:59:16;14.15;;;12.27;;
24567;SDS011;12731;52.182;8.716;2024-02-14T14:01:45;15.02;;;12.95;;
24567;SDS011;12731;52.182;8.716;2024-02-14T14:04:12;15.02;;;12.52;;
24567;SDS011;12731;52.182;8.716;2024-02-14T14:06:38;15.60;;;13.90;;
24567;SDS011;12731;52.182;8.716;2024-02-14T14:09:05;15.10;;;13.40;;
24567;SDS011;12731;52.182;8.716;2024-02-14T14:11:34;17.45;;;15.52;;
24567;SDS011;12731;52.182;8.716;2024-02-14T14:14:03;15.70;;;14.00;;
24567;SDS011;12731;52.182;8.716;2024-02-14T14:16:29;15.52;;;13.82;;
24567;SDS011;12731;52.182;8.716;2024-02-14T14:18:56;16.58;;;13.90;;
24567;SDS011;12731;52.182;8.716;2024-02-14T14:21:24;16.35;;;13.13;;
24567;SDS011;12731;52.182;8.716;2024-02-14T14:23:51;17.08;;;15.23;;
24567;SDS011;12731;52.182;8.716;2024-02-14T14:26:17;15.55;;;13.98;;
24567;SDS011;12731;52.182;8.716;2024-02-14T14:28:44;16.90;;;13.32;;
24567;SDS011;12731;52.182;8.716;2024-02-14T14:31:10;14.98;;;13.15;;
24567;SDS011;12731;52.182;8.716;2024-02-14T14:33:38;15.98;;;12.70;;
24567;SDS011;12731;52.182;8.716;2024-02-14T14:36:05;14.43;;;11.75;;